Time;durP1;ratioP1;P1;durP2;ratioP2;P2;SDS_P1;SDS_P2;PMS_P1;PMS_P2;Temp;Humidity;BMP_temperature;BMP_pressure;BME280_temperature;BME280_humidity;BME280_pressure;Samples;Min_cycle;Max_cycle;Signal;HPM_P1;HPM_P2
2022/07/28 06:05:35;;;;;;;;;5.00;4.00;;;;;22.71;44.38;101159.88;5113040;27;45473;-69
2022/07/28 06:08:00;;;;;;;;;3.67;3.00;;;;;22.81;44.16;101157.94;5102715;27;45478;-68
2022/07/28 06:10:57;;;;;;;;;6.00;4.33;;;;;22.97;43.41;101149.13;5105514;27;45693;-70
2022/07/28 06:13:14;;;;;;;;;3.33;3.33;;;;;23.28;42.47;101137.91;5108258;27;45762;-69
2022/07/28 06:15:40;;;;;;;;;5.00;3.33;;;;;23.54;42.45;101147.09;5091735;27;46193;-69
2022/07/28 06:18:06;;;;;;;;;4.00;4.00;;;;;23.83;41.91;101145.91;5111578;27;45883;-69
2022/07/28 06:20:31;;;;;;;;;5.00;5.00;;;;;24.10;41.24;101152.16;5112282;27;45374;-69
2022/07/28 06:22:56;;;;;;;;;4.00;4.00;;;;;24.35;40.79;101157.69;5108691;27;45490;-68
2022/07/28 06:25:24;;;;;;;;;6.00;4.00;;;;;24.62;40.39;101166.59;5112086;27;46059;-69
2022/07/28 06:27:51;;;;;;;;;4.00;4.00;;;;;24.89;40.15;101153.75;5108510;27;45537;-68
2022/07/28 06:30:17;;;;;;;;;3.33;3.33;;;;;25.12;39.70;101162.13;5096381;27;45394;-69
2022/07/28 06:32:44;;;;;;;;;5.33;5.33;;;;;25.32;38.86;101161.78;5111149;27;45371;-70
2022/07/28 06:35:13;;;;;;;;;3.00;3.00;;;;;25.50;38.80;101155.31;5109462;27;46121;-69
2022/07/28 06:37:39;;;;;;;;;3.00;2.67;;;;;25.67;38.61;101153.44;5104277;27;45561;-69
2022/07/28 06:40:06;;;;;;;;;3.67;3.67;;;;;25.83;38.27;101162.59;5107624;27;46814;-70
2022/07/28 06:42:31;;;;;;;;;3.33;3.33;;;;;25.99;38.74;101162.50;5110367;27;45374;-70
2022/07/28 06:44:56;;;;;;;;;3.00;3.00;;;;;26.18;38.63;101155.81;5107707;27;46185;-71
2022/07/28 06:47:22;;;;;;;;;4.33;4.33;;;;;26.35;38.99;101163.94;5108506;27;45402;-71
2022/07/28 06:49:47;;;;;;;;;5.33;4.00;;;;;26.52;39.09;101164.69;5105691;27;45575;-71
2022/07/28 06:52:12;;;;;;;;;3.00;3.00;;;;;26.66;39.05;101154.94;5123075;27;46017;-71
2022/07/28 06:54:38;;;;;;;;;5.00;3.33;;;;;26.81;38.86;101163.16;5105999;27;45508;-71
2022/07/28 06:57:03;;;;;;;;;4.00;4.00;;;;;26.98;38.98;101159.50;5109131;27;45643;-71
2022/07/28 06:59:29;;;;;;;;;1.00;1.00;;;;;27.11;38.70;101162.47;5110981;27;45556;-71
2022/07/28 07:01:54;;;;;;;;;3.33;3.33;;;;;27.21;38.52;101152.16;5110593;27;45491;-71
2022/07/28 07:04:20;;;;;;;;;2.00;2.00;;;;;27.32;38.58;101153.59;5107620;27;47213;-71
2022/07/28 07:06:45;;;;;;;;;3.67;3.67;;;;;27.43;38.80;101162.38;5104611;27;45459;-72
2022/07/28 07:09:10;;;;;;;;;3.00;3.00;;;;;27.52;38.81;101157.66;5109415;27;45766;-71
2022/07/28 07:11:36;;;;;;;;;3.33;2.67;;;;;27.60;38.93;101158.47;5107323;27;45694;-71
2022/07/28 07:14:01;;;;;;;;;4.00;4.00;;;;;27.67;38.24;101152.28;5110611;27;46114;-72
2022/07/28 07:16:27;;;;;;;;;4.00;3.00;;;;;27.75;38.46;101161.19;5098668;27;46152;-72
2022/07/28 07:18:52;;;;;;;;;4.67;3.33;;;;;27.85;38.63;101160.09;5097320;27;45413;-71
2022/07/28 07:21:18;;;;;;;;;3.67;3.67;;;;;27.91;38.33;101158.50;5095482;27;45409;-70
2022/07/28 07:23:44;;;;;;;;;3.00;3.00;;;;;27.98;38.34;101160.28;5087096;27;45876;-71
2022/07/28 07:26:09;;;;;;;;;5.00;3.67;;;;;28.05;37.99;101165.81;5095743;27;45409;-72
2022/07/28 07:28:35;;;;;;;;;3.67;3.00;;;;;28.09;38.17;101164.41;5096610;27;45483;-71
2022/07/28 07:31:00;;;;;;;;;3.67;3.67;;;;;28.17;38.25;101160.72;5090686;27;45348;-72
2022/07/28 07:33:25;;;;;;;;;2.33;2.33;;;;;28.23;37.90;101159.09;5097334;27;46000;-71
2022/07/28 07:35:51;;;;;;;;;2.33;2.33;;;;;28.27;37.60;101161.31;5085626;27;45533;-71
2022/07/28 07:38:16;;;;;;;;;5.00;3.33;;;;;28.32;38.13;101165.34;5094277;27;45436;-71
2022/07/28 07:40:42;;;;;;;;;3.00;3.00;;;;;28.34;37.35;101157.81;5094447;27;45497;-71
2022/07/28 07:43:07;;;;;;;;;3.33;3.33;;;;;28.38;37.71;101168.16;5095959;27;45769;-70
2022/07/28 07:45:33;;;;;;;;;4.33;4.33;;;;;28.40;37.20;101170.69;5089498;27;45792;-70
2022/07/28 07:47:59;;;;;;;;;4.00;4.00;;;;;28.41;37.55;101169.66;5096343;27;45268;-71
2022/07/28 07:50:24;;;;;;;;;4.67;3.67;;;;;28.45;37.18;101173.72;5086683;27;45802;-70
2022/07/28 07:52:50;;;;;;;;;3.00;2.00;;;;;28.47;37.31;101170.75;5086709;27;47118;-70
2022/07/28 07:55:15;;;;;;;;;4.00;4.00;;;;;28.49;37.57;101165.97;5089309;27;47220;-70
2022/07/28 07:57:41;;;;;;;;;4.00;4.00;;;;;28.41;36.97;101151.38;5087433;27;45500;-70
2022/07/28 08:00:07;;;;;;;;;3.33;3.33;;;;;28.52;37.22;101169.16;5089079;27;45850;-71
2022/07/28 08:02:32;;;;;;;;;4.00;3.67;;;;;28.56;37.07;101166.06;5085251;27;48021;-71
2022/07/28 08:04:59;;;;;;;;;2.00;2.00;;;;;28.59;37.10;101163.78;5080732;27;45781;-71
2022/07/28 08:07:24;;;;;;;;;3.00;3.00;;;;;28.62;37.63;101163.41;5088113;27;45487;-71
2022/07/28 08:09:50;;;;;;;;;5.00;4.33;;;;;28.66;37.11;101163.84;5088840;27;45521;-71
2022/07/28 08:12:15;;;;;;;;;5.33;4.00;;;;;28.69;37.13;101159.88;5087871;27;49679;-71
2022/07/28 08:14:40;;;;;;;;;3.67;3.00;;;;;28.69;36.42;101162.63;5093807;27;45693;-70
2022/07/28 08:17:06;;;;;;;;;6.67;6.67;;;;;28.69;36.14;101162.63;5088234;27;45380;-69
2022/07/28 08:19:31;;;;;;;;;6.33;6.33;;;;;28.65;35.01;101162.16;5091294;27;45402;-68
2022/07/28 08:21:56;;;;;;;;;6.67;4.33;;;;;28.62;35.16;101168.88;5092186;27;46854;-67
2022/07/28 08:24:22;;;;;;;;;6.00;6.00;;;;;28.58;34.77;101153.03;5087260;27;45552;-67
2022/07/28 08:26:47;;;;;;;;;7.00;5.33;;;;;28.56;35.26;101153.22;5086927;27;45340;-68
2022/07/28 08:29:13;;;;;;;;;5.67;5.33;;;;;28.52;34.78;101149.19;5090449;27;45367;-70
2022/07/28 08:31:38;;;;;;;;;5.33;4.33;;;;;28.51;34.90;101152.97;5086369;27;46827;-69
2022/07/28 08:34:03;;;;;;;;;6.67;5.00;;;;;28.51;34.50;101161.16;5087132;27;45796;-70
2022/07/28 08:36:30;;;;;;;;;6.00;4.67;;;;;28.53;35.13;101162.66;5086845;27;45783;-70
2022/07/28 08:38:56;;;;;;;;;10.67;9.00;;;;;28.53;34.73;101159.91;5088900;27;45450;-70
2022/07/28 08:41:29;;;;;;;;;5.67;5.67;;;;;28.52;35.03;101151.91;5093078;27;46216;-69
2022/07/28 08:43:58;;;;;;;;;7.00;5.00;;;;;28.52;35.17;101149.19;5091949;27;45422;-71
2022/07/28 08:46:23;;;;;;;;;7.00;5.00;;;;;28.50;34.89;101151.28;5090845;27;45450;-72
2022/07/28 08:48:49;;;;;;;;;4.00;4.00;;;;;28.49;35.29;101147.69;5092313;27;45820;-72
2022/07/28 08:51:15;;;;;;;;;6.00;6.00;;;;;28.52;35.37;101150.03;5086680;27;45906;-71
2022/07/28 08:53:42;;;;;;;;;8.67;6.00;;;;;28.51;35.12;101151.09;5085936;27;45559;-69
2022/07/28 08:56:10;;;;;;;;;5.00;5.00;;;;;28.52;35.41;101147.31;5087875;27;47219;-71
2022/07/28 08:58:37;;;;;;;;;8.67;6.67;;;;;28.50;35.27;101146.69;5094320;27;45503;-70
2022/07/28 09:01:05;;;;;;;;;4.00;4.00;;;;;28.49;34.84;101138.69;5093191;27;47140;-69
2022/07/28 09:03:31;;;;;;;;;9.67;6.33;;;;;28.53;34.64;101142.72;5085072;27;45574;-69
2022/07/28 09:05:57;;;;;;;;;6.00;6.00;;;;;28.55;33.99;101137.88;5089790;27;45483;-68
2022/07/28 09:08:23;;;;;;;;;5.00;5.00;;;;;28.59;34.58;101139.19;5090334;27;45408;-71
2022/07/28 09:10:49;;;;;;;;;5.67;5.00;;;;;28.61;34.05;101139.00;5088046;27;45460;-69
2022/07/28 09:13:16;;;;;;;;;13.33;7.67;;;;;28.64;33.67;101135.88;5080338;27;45475;-70
2022/07/28 09:15:44;;;;;;;;;9.00;8.00;;;;;28.66;33.77;101147.47;5075839;27;45443;-70
2022/07/28 09:18:11;;;;;;;;;10.00;6.00;;;;;28.69;34.33;101143.50;5079816;27;45419;-70
2022/07/28 09:20:36;;;;;;;;;7.00;7.00;;;;;28.71;34.54;101142.25;5086006;27;45447;-70
2022/07/28 09:23:05;;;;;;;;;6.67;6.00;;;;;28.73;34.36;101147.53;5078708;27;45471;-70
2022/07/28 09:25:32;;;;;;;;;5.00;4.67;;;;;28.74;34.30;101144.63;5080489;27;45394;-70
2022/07/28 09:28:11;;;;;;;;;9.33;6.00;;;;;28.76;34.50;101141.66;5083934;27;45429;-70
2022/07/28 09:30:40;;;;;;;;;7.00;6.00;;;;;28.77;34.47;101144.22;5086018;27;45382;-71
2022/07/28 09:33:20;;;;;;;;;9.67;8.00;;;;;28.79;33.73;101138.56;5086588;27;45443;-70
2022/07/28 09:35:55;;;;;;;;;7.33;7.00;;;;;28.78;34.27;101137.69;5080008;27;45663;-71
2022/07/28 09:38:22;;;;;;;;;5.67;5.67;;;;;28.78;33.79;101131.41;5083964;27;45297;-70
2022/07/28 09:41:03;;;;;;;;;5.00;5.00;;;;;28.82;33.75;101137.31;5084028;27;46524;-70
2022/07/28 09:43:36;;;;;;;;;8.00;6.00;;;;;28.81;33.32;101131.00;5084349;27;45575;-71
2022/07/28 09:46:03;;;;;;;;;7.00;6.00;;;;;28.80;33.50;101132.91;5085520;27;45544;-70
2022/07/28 09:48:29;;;;;;;;;6.33;6.33;;;;;28.79;33.60;101123.03;5102037;27;45562;-70
2022/07/28 09:51:09;;;;;;;;;7.67;6.00;;;;;28.80;33.58;101123.84;5087633;27;46295;-71
2022/07/28 09:53:34;;;;;;;;;6.67;6.33;;;;;28.83;33.51;101128.94;5091454;27;45385;-71
2022/07/28 09:56:01;;;;;;;;;6.33;6.33;;;;;28.83;33.24;101126.22;5109841;27;45470;-70
2022/07/28 09:58:28;;;;;;;;;6.33;4.67;;;;;28.83;33.04;101122.63;5090458;27;45411;-71
2022/07/28 10:01:05;;;;;;;;;7.00;7.00;;;;;28.79;33.45;101113.97;5083186;27;45572;-71
2022/07/28 10:03:31;;;;;;;;;7.67;7.67;;;;;28.86;33.48;101125.81;5093883;27;45787;-71
2022/07/28 10:05:57;;;;;;;;;7.67;6.33;;;;;28.60;33.22;101078.09;5090384;27;45430;-70
2022/07/28 10:08:40;;;;;;;;;6.00;6.00;;;;;28.76;33.42;101103.44;5089236;27;45798;-70
2022/07/28 10:11:06;;;;;;;;;7.00;5.67;;;;;28.65;32.67;101077.50;5085425;27;46387;-71
2022/07/28 10:13:31;;;;;;;;;5.33;3.67;;;;;28.67;33.33;101078.16;5092380;27;45352;-71
2022/07/28 10:16:11;;;;;;;;;5.00;5.00;;;;;28.73;33.00;101082.81;5092843;27;45407;-71
2022/07/28 10:18:39;;;;;;;;;6.00;6.00;;;;;28.67;33.06;101073.53;5083176;27;47095;-71
2022/07/28 10:21:12;;;;;;;;;5.67;5.00;;;;;28.74;33.23;101086.41;5093027;27;46410;-70
2022/07/28 10:23:41;;;;;;;;;4.67;4.33;;;;;28.75;32.99;101088.09;5088776;27;45507;-71
2022/07/28 10:26:09;;;;;;;;;4.67;4.67;;;;;28.70;33.08;101094.16;5093675;27;45403;-70
2022/07/28 10:28:39;;;;;;;;;5.00;5.00;;;;;28.78;33.08;101084.97;5087138;27;45522;-71
2022/07/28 10:31:08;;;;;;;;;4.33;4.33;;;;;28.73;32.72;101077.34;5096629;27;46269;-71
2022/07/28 10:33:41;;;;;;;;;4.00;4.00;;;;;28.82;33.06;101093.63;5090210;27;46270;-70
2022/07/28 10:36:09;;;;;;;;;3.67;3.67;;;;;28.79;33.01;101087.53;5080534;27;45481;-72
2022/07/28 10:38:36;;;;;;;;;4.00;4.00;;;;;28.83;33.26;101082.50;5091939;27;45386;-71
2022/07/28 10:41:05;;;;;;;;;4.00;4.00;;;;;29.00;32.45;101106.81;5090349;27;46407;-71
2022/07/28 10:43:31;;;;;;;;;5.00;4.67;;;;;28.75;32.80;101068.97;5106544;27;46453;-71
2022/07/28 10:45:58;;;;;;;;;4.00;4.00;;;;;28.89;32.70;101089.94;5092740;27;45435;-70
2022/07/28 10:48:24;;;;;;;;;5.00;4.00;;;;;28.79;33.10;101065.66;5090933;27;45586;-70
2022/07/28 10:50:52;;;;;;;;;5.00;5.00;;;;;28.86;33.08;101084.00;5089821;27;46693;-71
2022/07/28 10:53:33;;;;;;;;;5.00;5.00;;;;;29.04;32.93;101106.25;5093366;27;45641;-71
2022/07/28 10:56:13;;;;;;;;;5.00;5.00;;;;;28.90;32.52;101077.97;5095977;27;45339;-70
2022/07/28 10:59:14;;;;;;;;;4.00;4.00;;;;;29.07;32.10;101102.28;5090332;27;45492;-70
2022/07/28 11:01:40;;;;;;;;;3.67;3.33;;;;;29.02;32.22;101082.91;5086995;27;46197;-71
2022/07/28 11:04:06;;;;;;;;;4.67;3.67;;;;;28.88;32.83;101058.19;5087292;27;45773;-71
2022/07/28 11:06:38;;;;;;;;;5.00;4.33;;;;;28.86;32.60;101057.53;5089396;27;45544;-70
2022/07/28 11:09:16;;;;;;;;;3.00;3.00;;;;;29.11;32.38;101089.91;5083697;27;45459;-71
2022/07/28 11:11:45;;;;;;;;;3.00;3.00;;;;;28.92;31.99;101058.63;5091195;27;45521;-71
2022/07/28 11:14:23;;;;;;;;;4.33;4.33;;;;;29.11;32.12;101094.53;5090437;27;45494;-71
2022/07/28 11:16:50;;;;;;;;;3.67;3.67;;;;;29.10;31.90;101098.31;5092498;27;45441;-70
2022/07/28 11:19:17;;;;;;;;;4.33;3.67;;;;;28.95;32.88;101079.25;5087219;27;46184;-71
2022/07/28 11:22:20;;;;;;;;;5.67;4.67;;;;;29.11;31.95;101091.78;5092995;27;45838;-70
2022/07/28 11:24:59;;;;;;;;;4.33;3.00;;;;;29.10;32.21;101095.56;5090232;27;45446;-71
2022/07/28 11:27:40;;;;;;;;;4.33;4.33;;;;;29.10;32.41;101090.94;5090254;27;45446;-71
2022/07/28 11:30:10;;;;;;;;;5.00;5.00;;;;;29.08;32.18;101082.09;5088753;27;45735;-70
2022/07/28 11:32:52;;;;;;;;;4.00;4.00;;;;;29.08;31.82;101084.84;5097298;27;46504;-70
2022/07/28 11:35:18;;;;;;;;;5.33;4.33;;;;;29.07;32.15;101077.69;5093678;27;45757;-70
2022/07/28 11:37:59;;;;;;;;;3.33;3.00;;;;;29.04;32.30;101076.19;5092284;27;45480;-71
2022/07/28 11:40:36;;;;;;;;;3.00;3.00;;;;;29.05;32.66;101071.56;5092464;27;45446;-70
2022/07/28 11:43:24;;;;;;;;;4.33;4.33;;;;;29.05;32.76;101074.28;5095196;27;47098;-71
2022/07/28 11:45:51;;;;;;;;;5.00;4.00;;;;;29.07;31.82;101074.97;5084360;27;45410;-71
2022/07/28 11:48:20;;;;;;;;;5.00;5.00;;;;;29.08;32.40;101076.63;5092785;27;45676;-70
2022/07/28 11:51:03;;;;;;;;;5.67;3.67;;;;;29.12;32.12;101082.53;5090769;27;45494;-71
2022/07/28 11:53:43;;;;;;;;;3.00;3.00;;;;;29.12;32.16;101077.06;5088585;27;46488;-71
2022/07/28 11:56:11;;;;;;;;;4.33;3.33;;;;;29.16;32.39;101084.69;5092470;27;45700;-71
2022/07/28 11:58:37;;;;;;;;;4.67;4.67;;;;;29.18;31.98;101079.03;5093186;27;45548;-71
2022/07/28 12:01:13;;;;;;;;;3.33;3.33;;;;;29.19;32.28;101081.53;5092374;27;46529;-71
2022/07/28 12:03:40;;;;;;;;;3.67;3.67;;;;;29.21;31.70;101080.53;5088698;27;46260;-71
2022/07/28 12:06:09;;;;;;;;;3.00;3.00;;;;;29.21;32.04;101075.88;5094938;27;45420;-71
2022/07/28 12:08:56;;;;;;;;;3.00;3.00;;;;;29.18;31.83;101062.63;5094393;27;45432;-71
2022/07/28 12:11:23;;;;;;;;;5.00;3.00;;;;;29.23;31.87;101072.97;5091346;27;45313;-70
2022/07/28 12:13:58;;;;;;;;;4.33;4.33;;;;;29.26;32.35;101072.56;5091509;27;45874;-70
2022/07/28 12:16:27;;;;;;;;;4.00;4.00;;;;;29.26;32.18;101076.13;5103985;27;45400;-70
2022/07/28 12:18:53;;;;;;;;;5.00;5.00;;;;;29.19;31.93;101059.69;5095632;27;45447;-70
2022/07/28 12:21:54;;;;;;;;;3.33;3.33;;;;;29.24;32.06;101072.75;5086474;27;45603;-70
2022/07/28 12:24:30;;;;;;;;;3.67;3.67;;;;;29.26;32.20;101072.56;5064154;28;46353;-71
2022/07/28 12:26:58;;;;;;;;;4.00;4.00;;;;;29.27;31.80;101075.09;5057403;28;45482;-70
2022/07/28 12:29:28;;;;;;;;;3.33;3.33;;;;;29.28;31.22;101062.28;5064838;28;45483;-71
2022/07/28 12:32:01;;;;;;;;;3.00;3.00;;;;;29.28;32.10;101068.59;5066161;28;45587;-70
2022/07/28 12:34:28;;;;;;;;;5.33;5.33;;;;;29.26;31.60;101064.38;5073077;28;45419;-71
2022/07/28 12:36:57;;;;;;;;;3.67;3.67;;;;;29.24;31.53;101067.31;5058192;28;45415;-71
2022/07/28 12:39:24;;;;;;;;;3.00;3.00;;;;;29.27;31.77;101071.53;5070467;28;45623;-69
2022/07/28 12:42:03;;;;;;;;;3.67;3.67;;;;;29.27;31.66;101064.19;5066754;28;45561;-69
2022/07/28 12:44:42;;;;;;;;;4.33;4.33;;;;;29.25;31.69;101060.78;5069417;28;47110;-71
2022/07/28 12:47:10;;;;;;;;;3.33;3.33;;;;;29.27;32.10;101061.44;5064419;28;45344;-69
2022/07/28 12:49:37;;;;;;;;;3.00;3.00;;;;;29.21;31.66;101045.00;5073446;27;45506;-71
2022/07/28 12:52:15;;;;;;;;;5.00;5.00;;;;;29.29;31.85;101059.34;5071362;28;45450;-70
2022/07/28 12:54:41;;;;;;;;;2.67;2.67;;;;;29.29;31.04;101066.69;5066034;28;45537;-70
2022/07/28 12:57:06;;;;;;;;;6.00;3.00;;;;;29.28;31.47;101054.94;5064826;28;45612;-70
2022/07/28 12:59:33;;;;;;;;;3.00;3.00;;;;;29.31;31.51;101049.03;5088737;27;45370;-70
2022/07/28 13:02:01;;;;;;;;;3.33;3.33;;;;;29.31;31.13;101050.94;5089397;27;46821;-70
2022/07/28 13:04:45;;;;;;;;;3.00;3.00;;;;;29.33;31.18;101054.31;5095379;27;45972;-70
2022/07/28 13:07:11;;;;;;;;;7.33;4.33;;;;;29.32;31.18;101047.16;5089824;27;46874;-70
2022/07/28 13:09:47;;;;;;;;;3.33;3.33;;;;;29.31;31.69;101053.69;5079410;27;45657;-68
2022/07/28 13:12:23;;;;;;;;;4.00;4.00;;;;;29.30;31.72;101055.56;5084280;27;45351;-69
2022/07/28 13:14:55;;;;;;;;;4.00;4.00;;;;;29.31;31.59;101049.03;5094950;27;46122;-70
2022/07/28 13:17:51;;;;;;;;;7.00;4.00;;;;;29.32;31.33;101049.91;5087723;27;45490;-69
2022/07/28 13:20:17;;;;;;;;;4.00;4.00;;;;;29.33;30.89;101046.09;5089504;27;45454;-70
2022/07/28 13:22:45;;;;;;;;;3.67;2.67;;;;;29.35;31.49;101048.66;5086945;27;45461;-70
2022/07/28 13:25:12;;;;;;;;;3.67;3.33;;;;;29.35;31.13;101045.91;5082356;27;46410;-70
2022/07/28 13:27:37;;;;;;;;;4.00;4.00;;;;;29.30;30.98;101035.59;5083196;27;45501;-69
2022/07/28 13:30:04;;;;;;;;;4.00;4.00;;;;;29.34;31.26;101045.06;5092512;27;45534;-69
2022/07/28 13:32:29;;;;;;;;;4.00;4.00;;;;;29.33;31.70;101048.84;5093225;27;45567;-69
2022/07/28 13:34:55;;;;;;;;;3.00;3.00;;;;;29.34;30.91;101050.53;5088621;27;50358;-68
2022/07/28 13:37:22;;;;;;;;;5.00;3.33;;;;;29.35;31.22;101046.78;5090574;27;45609;-69
2022/07/28 13:39:49;;;;;;;;;4.00;4.00;;;;;29.31;30.99;101046.31;5089369;27;45388;-69
2022/07/28 13:42:14;;;;;;;;;4.00;3.67;;;;;29.29;31.31;101042.94;5084238;27;45752;-70
2022/07/28 13:44:39;;;;;;;;;5.00;5.00;;;;;29.32;30.91;101045.28;5084216;27;46262;-71
2022/07/28 13:47:05;;;;;;;;;3.33;3.33;;;;;29.35;30.92;101045.91;5082738;27;45650;-71
2022/07/28 13:49:32;;;;;;;;;4.67;4.33;;;;;29.34;31.06;101042.31;5093189;27;45441;-71
2022/07/28 13:52:02;;;;;;;;;4.00;4.00;;;;;29.36;31.32;101047.59;5074959;27;45528;-71
2022/07/28 13:54:27;;;;;;;;;6.00;4.00;;;;;29.37;31.17;101044.66;5084231;27;47096;-71
2022/07/28 13:56:53;;;;;;;;;3.00;3.00;;;;;29.36;30.51;101042.13;5087108;27;46200;-71
2022/07/28 13:59:19;;;;;;;;;3.00;2.67;;;;;29.37;30.82;101035.59;5091324;27;45375;-71
2022/07/28 14:01:44;;;;;;;;;4.00;4.00;;;;;29.39;30.79;101044.47;5093549;27;45422;-70
2022/07/28 14:04:10;;;;;;;;;4.00;4.00;;;;;29.35;31.03;101033.09;5092488;27;45880;-71
2022/07/28 14:06:35;;;;;;;;;4.67;4.33;;;;;29.38;30.65;101031.84;5085117;27;45556;-71
2022/07/28 14:09:01;;;;;;;;;6.33;5.00;;;;;29.38;31.31;101038.16;5088540;27;45350;-69
2022/07/28 14:11:27;;;;;;;;;4.00;4.00;;;;;29.35;30.90;101033.09;5095313;27;45441;-69
2022/07/28 14:13:52;;;;;;;;;4.00;3.33;;;;;29.39;30.80;101030.81;5092702;27;46426;-69
2022/07/28 14:16:21;;;;;;;;;4.67;4.67;;;;;29.39;30.54;101031.63;5089445;27;45682;-69
2022/07/28 14:18:47;;;;;;;;;3.00;3.00;;;;;29.41;30.57;101036.91;5094968;27;45377;-69
2022/07/28 14:21:13;;;;;;;;;3.00;3.00;;;;;29.41;31.16;101028.69;5092601;27;45494;-70
2022/07/28 14:23:38;;;;;;;;;2.00;2.00;;;;;29.38;30.58;101027.22;5087399;27;46370;-69
2022/07/28 14:26:04;;;;;;;;;3.00;3.00;;;;;29.40;30.61;101027.88;5095705;27;45484;-71
2022/07/28 14:28:29;;;;;;;;;5.67;4.00;;;;;29.40;30.51;101025.13;5087298;27;45426;-70
2022/07/28 14:30:54;;;;;;;;;4.00;3.33;;;;;29.39;30.63;101030.81;5095940;27;45363;-70
2022/07/28 14:33:20;;;;;;;;;4.67;3.33;;;;;29.41;30.97;101023.22;5097525;27;45396;-70
2022/07/28 14:35:45;;;;;;;;;5.33;5.33;;;;;29.41;31.02;101026.81;5084583;27;45671;-71
2022/07/28 14:38:11;;;;;;;;;3.00;3.00;;;;;29.41;30.53;101026.81;5093604;27;45617;-71
2022/07/28 14:40:37;;;;;;;;;3.00;3.00;;;;;29.43;31.08;101029.34;5087079;27;45434;-70
2022/07/28 14:43:03;;;;;;;;;3.00;3.00;;;;;29.42;30.32;101033.97;5096591;27;46203;-69
2022/07/28 14:45:28;;;;;;;;;4.33;4.00;;;;;29.43;30.60;101029.34;5096338;27;45386;-70
2022/07/28 14:47:54;;;;;;;;;7.00;7.00;;;;;29.41;30.29;101029.56;5083715;27;45433;-69
2022/07/28 14:50:20;;;;;;;;;5.00;4.00;;;;;29.41;30.27;101029.56;5091318;27;45456;-69
2022/07/28 14:52:46;;;;;;;;;5.33;5.33;;;;;29.40;30.79;101033.34;5097179;27;45917;-69
2022/07/28 14:55:11;;;;;;;;;5.00;5.00;;;;;29.39;30.49;101028.06;5087860;27;47003;-69
2022/07/28 14:57:37;;;;;;;;;6.00;4.67;;;;;29.35;31.09;101026.78;5094973;27;45376;-69
2022/07/28 15:00:06;;;;;;;;;3.00;3.00;;;;;29.37;30.57;101032.88;5093085;27;45448;-70
2022/07/28 15:02:31;;;;;;;;;4.00;4.00;;;;;29.36;30.61;101033.94;5096161;27;45501;-69
2022/07/28 15:04:57;;;;;;;;;4.67;3.33;;;;;29.32;31.17;101033.50;5094853;27;45540;-70
2022/07/28 15:07:22;;;;;;;;;4.67;4.67;;;;;29.32;30.39;101036.22;5091166;27;46309;-69
2022/07/28 15:09:47;;;;;;;;;4.00;4.00;;;;;29.29;30.97;101037.47;5087915;27;45426;-69
2022/07/28 15:12:13;;;;;;;;;4.00;4.00;;;;;29.28;30.58;101043.13;5077567;27;45454;-69
2022/07/28 15:14:38;;;;;;;;;5.00;3.67;;;;;29.27;30.69;101039.56;5080171;27;45533;-69
2022/07/28 15:17:03;;;;;;;;;5.00;4.00;;;;;29.26;30.69;101039.78;5083077;27;45686;-69
2022/07/28 15:19:32;;;;;;;;;4.00;4.00;;;;;29.24;30.58;101037.22;5077048;27;45767;-69
2022/07/28 15:21:57;;;;;;;;;6.33;5.00;;;;;29.23;30.77;101043.75;5078659;27;46188;-70
2022/07/28 15:24:26;;;;;;;;;4.33;4.33;;;;;29.21;30.94;101039.53;5079475;27;45522;-70
2022/07/28 15:26:51;;;;;;;;;6.33;4.00;;;;;29.18;31.64;101038.03;5081478;27;45436;-70
2022/07/28 15:29:18;;;;;;;;;10.00;7.33;;;;;29.18;31.23;101041.59;5076931;27;45631;-70
2022/07/28 15:31:45;;;;;;;;;7.67;5.33;;;;;29.18;31.16;101041.59;5079300;27;45374;-70
2022/07/28 15:34:11;;;;;;;;;4.67;3.67;;;;;29.19;30.77;101045.19;5077844;27;45478;-70
2022/07/28 15:36:36;;;;;;;;;6.67;3.33;;;;;29.20;31.51;101041.41;5088618;27;45600;-69
2022/07/28 15:39:01;;;;;;;;;4.33;4.33;;;;;29.17;31.90;101045.38;5077128;27;45293;-71
2022/07/28 15:41:27;;;;;;;;;7.00;5.33;;;;;29.15;32.04;101043.91;5079482;27;46033;-71
2022/07/28 15:43:52;;;;;;;;;6.33;5.00;;;;;29.11;32.34;101039.88;5082358;27;45330;-71
2022/07/28 15:46:17;;;;;;;;;4.00;3.67;;;;;29.12;33.06;101039.69;5086654;27;45477;-71
2022/07/28 15:48:43;;;;;;;;;5.00;5.00;;;;;29.17;32.88;101050.00;5083263;27;45433;-71
2022/07/28 15:51:09;;;;;;;;;5.00;5.00;;;;;29.19;33.73;101043.28;5078925;27;45461;-71
2022/07/28 15:53:35;;;;;;;;;6.00;5.00;;;;;29.24;33.40;101041.84;5091908;27;45345;-72
2022/07/28 15:56:02;;;;;;;;;5.00;3.33;;;;;29.28;33.65;101040.41;5084194;27;45693;-72
2022/07/28 15:58:29;;;;;;;;;5.67;4.33;;;;;29.24;33.65;101025.44;5095763;27;45377;-71
2022/07/28 16:00:54;;;;;;;;;3.00;2.33;;;;;29.35;33.73;101044.03;5091474;27;47255;-72
2022/07/28 16:03:23;;;;;;;;;3.33;3.33;;;;;29.28;34.45;101030.31;5096394;27;45579;-72
2022/07/28 16:05:49;;;;;;;;;6.67;5.00;;;;;29.40;34.14;101049.75;5094052;27;45535;-73
2022/07/28 16:08:19;;;;;;;;;5.00;5.00;;;;;29.36;33.88;101036.66;5093196;27;45774;-72
2022/07/28 16:10:45;;;;;;;;;5.00;4.00;;;;;29.46;34.06;101048.94;5096910;27;47014;-73
2022/07/28 16:13:10;;;;;;;;;4.00;4.00;;;;;29.25;34.69;101008.84;5093720;27;45447;-71
2022/07/28 16:15:36;;;;;;;;;4.00;4.00;;;;;29.23;34.14;101000.03;5096761;27;45508;-72
2022/07/28 16:18:01;;;;;;;;;3.00;3.00;;;;;29.51;34.86;101028.38;5082331;27;45496;-72
2022/07/28 16:20:26;;;;;;;;;6.00;4.67;;;;;29.40;34.32;101016.94;5093940;27;46323;-72
2022/07/28 16:22:52;;;;;;;;;3.00;3.00;;;;;29.63;34.29;101056.81;5094476;27;45357;-71
2022/07/28 16:25:19;;;;;;;;;4.33;4.33;;;;;29.52;35.03;101036.38;5094041;27;45353;-71
2022/07/28 16:27:46;;;;;;;;;5.00;5.00;;;;;29.55;34.58;101032.41;5086462;27;47179;-71
2022/07/28 16:30:11;;;;;;;;;5.00;5.00;;;;;29.57;32.79;101035.75;5089819;27;45656;-71
2022/07/28 16:32:38;;;;;;;;;4.00;4.00;;;;;29.61;31.86;101042.50;5092853;27;45533;-70
2022/07/28 16:35:05;;;;;;;;;4.33;4.33;;;;;29.75;32.21;101051.63;5093110;27;45473;-70
2022/07/28 16:37:31;;;;;;;;;4.00;4.00;;;;;29.63;31.49;101029.47;5085946;27;45705;-70
2022/07/28 16:39:56;;;;;;;;;3.33;3.33;;;;;29.56;31.67;101014.94;5079253;27;46714;-70
2022/07/28 16:42:22;;;;;;;;;6.33;4.67;;;;;29.56;31.28;101018.53;5089593;27;45469;-70
2022/07/28 16:44:47;;;;;;;;;4.00;4.00;;;;;29.79;31.97;101058.38;5088198;27;45394;-70
2022/07/28 16:47:13;;;;;;;;;6.67;4.00;;;;;29.58;31.73;101026.50;5090995;27;45596;-70
2022/07/28 16:49:38;;;;;;;;;5.33;5.33;;;;;29.66;31.97;101042.75;5090767;27;46210;-71
2022/07/28 16:52:04;;;;;;;;;4.00;4.00;;;;;29.60;31.12;101032.63;5088910;27;45341;-69
2022/07/28 16:54:29;;;;;;;;;4.00;4.00;;;;;29.61;31.37;101041.66;5094659;27;45459;-69
2022/07/28 16:56:54;;;;;;;;;7.33;5.00;;;;;29.59;31.21;101041.88;5094102;27;45496;-69
2022/07/28 16:59:21;;;;;;;;;4.00;4.00;;;;;29.61;31.62;101041.66;5094367;27;45280;-69
2022/07/28 17:01:46;;;;;;;;;4.67;4.67;;;;;29.55;31.74;101037.88;5091233;27;45560;-70
2022/07/28 17:04:13;;;;;;;;;5.00;5.00;;;;;29.61;31.19;101038.91;5094711;27;45420;-70
2022/07/28 17:06:38;;;;;;;;;4.67;4.67;;;;;29.52;31.34;101030.91;5094784;27;47190;-70
2022/07/28 17:09:04;;;;;;;;;3.33;3.33;;;;;29.56;31.15;101034.94;5095044;27;46453;-70
2022/07/28 17:11:29;;;;;;;;;3.33;3.33;;;;;29.59;31.09;101050.09;5094637;27;45502;-71
2022/07/28 17:13:55;;;;;;;;;7.00;5.33;;;;;29.53;30.91;101039.94;5094556;27;47318;-69
2022/07/28 17:16:20;;;;;;;;;4.00;4.00;;;;;29.54;31.31;101049.81;5093841;27;45515;-69
2022/07/28 17:18:45;;;;;;;;;3.00;3.00;;;;;29.69;30.93;101068.84;5094609;27;45453;-70
2022/07/28 17:21:11;;;;;;;;;5.67;4.67;;;;;29.54;31.60;101047.09;5094693;27;45819;-69
2022/07/28 17:23:36;;;;;;;;;7.00;5.00;;;;;29.48;32.08;101035.06;5094271;27;45537;-70
2022/07/28 17:26:05;;;;;;;;;4.67;4.67;;;;;29.54;31.86;101047.94;5093617;27;45379;-71
2022/07/28 17:28:32;;;;;;;;;3.00;3.00;;;;;29.54;31.31;101058.88;5086893;27;47174;-69
2022/07/28 17:30:57;;;;;;;;;4.33;3.33;;;;;29.43;30.88;101041.13;5085916;27;45344;-69
2022/07/28 17:33:24;;;;;;;;;6.00;4.33;;;;;29.46;31.32;101031.66;5092405;27;45711;-70